Terminal Aerodrome Forecast
Issued by NWS Louisville, KY

Home | Current Version | Previous Version | Text Only | Print | Product List | Glossary On
Versions: 1 2 3 4 5 6 7 8 9 10 11 12 13 14 15 16
000
FTUS43 KLMK 231724
TAFLEX
TAF
KLEX 231724Z 2318/2418 22008KT P6SM SCT035 BKN120
     FM232000 24009KT P6SM -SHRA VCTS SCT035CB BKN200
     FM240100 25004KT P6SM SCT030 BKN200
     FM240900 VRB03KT 4SM BR FEW045 SCT130
     FM241300 26007KT P6SM FEW045 SCT250=

USA.gov is the U.S. government's official web portal to all federal, state and local government web resources and services.